sensor_id;sensor_type;location;lat;lon;timestamp;temperature;humidity
8947;DHT22;4508;48.790;9.028;2023-02-26T00:00:43;-0.50;99.90
8947;DHT22;4508;48.790;9.028;2023-02-26T00:03:10;-0.40;99.90
8947;DHT22;4508;48.790;9.028;2023-02-26T00:05:37;-0.40;99.90
8947;DHT22;4508;48.790;9.028;2023-02-26T00:08:04;-0.40;99.90
8947;DHT22;4508;48.790;9.028;2023-02-26T00:10:30;-0.40;99.90
8947;DHT22;4508;48.790;9.028;2023-02-26T00:12:58;-0.20;99.90
8947;DHT22;4508;48.790;9.028;2023-02-26T00:15:26;-0.30;99.90
8947;DHT22;4508;48.790;9.028;2023-02-26T00:17:57;-0.50;99.90
8947;DHT22;4508;48.790;9.028;2023-02-26T00:20:26;-0.40;99.90
8947;DHT22;4508;48.790;9.028;2023-02-26T00:22:53;-0.20;99.90
8947;DHT22;4508;48.790;9.028;2023-02-26T00:25:20;-0.50;99.90
8947;DHT22;4508;48.790;9.028;2023-02-26T00:27:47;-0.40;99.90
8947;DHT22;4508;48.790;9.028;2023-02-26T00:30:14;-0.50;99.90
8947;DHT22;4508;48.790;9.028;2023-02-26T00:32:44;-0.50;99.90
8947;DHT22;4508;48.790;9.028;2023-02-26T00:35:13;-0.50;99.90
8947;DHT22;4508;48.790;9.028;2023-02-26T00:38:01;-0.40;99.90
8947;DHT22;4508;48.790;9.028;2023-02-26T00:40:38;-0.50;99.90
8947;DHT22;4508;48.790;9.028;2023-02-26T00:43:08;-0.40;99.90
8947;DHT22;4508;48.790;9.028;2023-02-26T00:45:37;-0.40;99.90
8947;DHT22;4508;48.790;9.028;2023-02-26T00:48:20;-0.30;99.90
8947;DHT22;4508;48.790;9.028;2023-02-26T00:50:55;-0.30;99.90
8947;DHT22;4508;48.790;9.028;2023-02-26T00:53:27;-0.40;99.90
8947;DHT22;4508;48.790;9.028;2023-02-26T00:55:54;-0.50;99.90
8947;DHT22;4508;48.790;9.028;2023-02-26T00:58:21;-0.70;99.90
8947;DHT22;4508;48.790;9.028;2023-02-26T01:00:48;-0.50;99.90
8947;DHT22;4508;48.790;9.028;2023-02-26T01:03:16;-0.60;99.90
8947;DHT22;4508;48.790;9.028;2023-02-26T01:05:43;-0.70;99.90
8947;DHT22;4508;48.790;9.028;2023-02-26T01:08:14;-0.60;99.90
8947;DHT22;4508;48.790;9.028;2023-02-26T01:10:45;-0.60;99.90
8947;DHT22;4508;48.790;9.028;2023-02-26T01:13:12;-0.90;99.90
8947;DHT22;4508;48.790;9.028;2023-02-26T01:15:42;-1.10;99.90
8947;DHT22;4508;48.790;9.028;2023-02-26T01:18:18;-1.00;99.90
8947;DHT22;4508;48.790;9.028;2023-02-26T01:20:49;-1.00;99.90
8947;DHT22;4508;48.790;9.028;2023-02-26T01:23:23;-1.00;99.90
8947;DHT22;4508;48.790;9.028;2023-02-26T01:25:54;-1.00;99.90
8947;DHT22;4508;48.790;9.028;2023-02-26T01:28:22;-1.20;99.90
8947;DHT22;4508;48.790;9.028;2023-02-26T01:30:50;-1.30;99.90
8947;DHT22;4508;48.790;9.028;2023-02-26T01:33:23;-1.20;99.90
8947;DHT22;4508;48.790;9.028;2023-02-26T01:35:53;-1.30;99.90
8947;DHT22;4508;48.790;9.028;2023-02-26T01:38:24;-1.40;99.90
8947;DHT22;4508;48.790;9.028;2023-02-26T01:41:25;-1.40;99.90
8947;DHT22;4508;48.790;9.028;2023-02-26T01:44:03;-1.20;99.90
8947;DHT22;4508;48.790;9.028;2023-02-26T01:46:34;-1.30;99.90
8947;DHT22;4508;48.790;9.028;2023-02-26T01:49:04;-1.40;99.90
8947;DHT22;4508;48.790;9.028;2023-02-26T01:51:47;-1.50;99.90
8947;DHT22;4508;48.790;9.028;2023-02-26T01:54:15;-1.70;99.90
8947;DHT22;4508;48.790;9.028;2023-02-26T01:56:43;-1.70;99.90
8947;DHT22;4508;48.790;9.028;2023-02-26T01:59:13;-1.60;99.90
8947;DHT22;4508;48.790;9.028;2023-02-26T02:01:41;-1.60;99.90
8947;DHT22;4508;48.790;9.028;2023-02-26T02:04:10;-1.60;99.90
8947;DHT22;4508;48.790;9.028;2023-02-26T02:06:38;-1.60;99.90
8947;DHT22;4508;48.790;9.028;2023-02-26T02:09:06;-1.80;99.90
8947;DHT22;4508;48.790;9.028;2023-02-26T02:11:34;-1.80;99.90
8947;DHT22;4508;48.790;9.028;2023-02-26T02:14:11;-1.80;99.90
8947;DHT22;4508;48.790;9.028;2023-02-26T02:16:44;-1.80;99.90
8947;DHT22;4508;48.790;9.028;2023-02-26T02:19:30;-1.80;99.90
8947;DHT22;4508;48.790;9.028;2023-02-26T02:22:10;-2.00;99.90
8947;DHT22;4508;48.790;9.028;2023-02-26T02:24:49;-2.00;99.90
8947;DHT22;4508;48.790;9.028;2023-02-26T02:27:23;-2.00;99.90
8947;DHT22;4508;48.790;9.028;2023-02-26T02:30:00;-2.10;99.90
8947;DHT22;4508;48.790;9.028;2023-02-26T02:32:34;-2.10;99.90
8947;DHT22;4508;48.790;9.028;2023-02-26T02:35:08;-2.10;99.90
8947;DHT22;4508;48.790;9.028;2023-02-26T02:37:40;-2.30;99.90
8947;DHT22;4508;48.790;9.028;2023-02-26T02:40:12;-2.10;99.90
8947;DHT22;4508;48.790;9.028;2023-02-26T02:42:44;-2.10;99.90
8947;DHT22;4508;48.790;9.028;2023-02-26T02:45:17;-2.10;99.90
8947;DHT22;4508;48.790;9.028;2023-02-26T02:47:49;-2.10;99.90
8947;DHT22;4508;48.790;9.028;2023-02-26T02:50:21;-2.10;99.90
8947;DHT22;4508;48.790;9.028;2023-02-26T02:52:53;-2.30;99.90
8947;DHT22;4508;48.790;9.028;2023-02-26T02:55:26;-2.40;99.90
8947;DHT22;4508;48.790;9.028;2023-02-26T02:57:57;-2.40;99.90
8947;DHT22;4508;48.790;9.028;2023-02-26T03:00:27;-2.60;99.90
8947;DHT22;4508;48.790;9.028;2023-02-26T03:03:02;-2.40;99.90
8947;DHT22;4508;48.790;9.028;2023-02-26T03:05:32;-2.50;99.90
8947;DHT22;4508;48.790;9.028;2023-02-26T03:08:02;-2.50;99.90
8947;DHT22;4508;48.790;9.028;2023-02-26T03:10:30;-2.40;99.90
8947;DHT22;4508;48.790;9.028;2023-02-26T03:12:57;-2.50;99.90
8947;DHT22;4508;48.790;9.028;2023-02-26T03:15:30;-2.50;99.90
8947;DHT22;4508;48.790;9.028;2023-02-26T03:18:05;-2.60;99.90
8947;DHT22;4508;48.790;9.028;2023-02-26T03:20:45;-2.50;99.90
8947;DHT22;4508;48.790;9.028;2023-02-26T03:23:20;-2.30;99.90
8947;DHT22;4508;48.790;9.028;2023-02-26T03:25:50;-2.20;99.90
8947;DHT22;4508;48.790;9.028;2023-02-26T03:28:20;-2.10;99.90
8947;DHT22;4508;48.790;9.028;2023-02-26T03:30:55;-2.00;99.90
8947;DHT22;4508;48.790;9.028;2023-02-26T03:33:28;-2.00;99.90
8947;DHT22;4508;48.790;9.028;2023-02-26T03:36:00;-1.80;99.90
8947;DHT22;4508;48.790;9.028;2023-02-26T03:38:32;-1.90;99.90
8947;DHT22;4508;48.790;9.028;2023-02-26T03:41:04;-2.00;99.90
8947;DHT22;4508;48.790;9.028;2023-02-26T03:43:36;-1.90;99.90
8947;DHT22;4508;48.790;9.028;2023-02-26T03:46:08;-2.00;99.90
8947;DHT22;4508;48.790;9.028;2023-02-26T03:48:37;-2.00;99.90
8947;DHT22;4508;48.790;9.028;2023-02-26T03:51:07;-2.00;99.90
8947;DHT22;4508;48.790;9.028;2023-02-26T03:53:40;-1.90;99.90
8947;DHT22;4508;48.790;9.028;2023-02-26T03:56:15;-2.00;99.90
8947;DHT22;4508;48.790;9.028;2023-02-26T03:58:44;-2.10;99.90
8947;DHT22;4508;48.790;9.028;2023-02-26T04:01:14;-2.10;99.90
8947;DHT22;4508;48.790;9.028;2023-02-26T04:03:48;-2.20;99.90
8947;DHT22;4508;48.790;9.028;2023-02-26T04:06:15;-2.20;99.90
8947;DHT22;4508;48.790;9.028;2023-02-26T04:08:43;-2.40;99.90
8947;DHT22;4508;48.790;9.028;2023-02-26T04:11:12;-2.40;99.90
8947;DHT22;4508;48.790;9.028;2023-02-26T04:13:41;-2.40;99.90
8947;DHT22;4508;48.790;9.028;2023-02-26T04:16:08;-2.40;99.90
8947;DHT22;4508;48.790;9.028;2023-02-26T04:18:35;-2.60;99.90
8947;DHT22;4508;48.790;9.028;2023-02-26T04:21:04;-2.50;99.90
8947;DHT22;4508;48.790;9.028;2023-02-26T04:23:30;-2.70;99.90
8947;DHT22;4508;48.790;9.028;2023-02-26T04:25:57;-2.70;99.90
8947;DHT22;4508;48.790;9.028;2023-02-26T04:28:24;-2.70;99.90
8947;DHT22;4508;48.790;9.028;2023-02-26T04:30:50;-2.70;99.90
8947;DHT22;4508;48.790;9.028;2023-02-26T04:33:17;-2.60;99.90
8947;DHT22;4508;48.790;9.028;2023-02-26T04:35:44;-2.70;99.90
8947;DHT22;4508;48.790;9.028;2023-02-26T04:38:12;-2.50;99.90
8947;DHT22;4508;48.790;9.028;2023-02-26T04:40:38;-2.60;99.90
8947;DHT22;4508;48.790;9.028;2023-02-26T04:43:05;-2.50;99.90
8947;DHT22;4508;48.790;9.028;2023-02-26T04:45:32;-2.70;99.90
8947;DHT22;4508;48.790;9.028;2023-02-26T04:47:58;-2.80;99.90
8947;DHT22;4508;48.790;9.028;2023-02-26T04:50:25;-2.70;99.90
8947;DHT22;4508;48.790;9.028;2023-02-26T04:52:52;-2.70;99.90
8947;DHT22;4508;48.790;9.028;2023-02-26T04:55:20;-2.70;99.90
8947;DHT22;4508;48.790;9.028;2023-02-26T04:57:46;-2.80;99.90
8947;DHT22;4508;48.790;9.028;2023-02-26T05:00:14;-2.80;99.90
8947;DHT22;4508;48.790;9.028;2023-02-26T05:02:41;-2.80;99.90
8947;DHT22;4508;48.790;9.028;2023-02-26T05:05:08;-2.70;99.90
8947;DHT22;4508;48.790;9.028;2023-02-26T05:07:35;-2.80;99.90
8947;DHT22;4508;48.790;9.028;2023-02-26T05:10:02;-2.50;99.90
8947;DHT22;4508;48.790;9.028;2023-02-26T05:12:30;-2.50;99.90
8947;DHT22;4508;48.790;9.028;2023-02-26T05:14:57;-2.30;99.90
8947;DHT22;4508;48.790;9.028;2023-02-26T05:17:24;-2.50;99.90
8947;DHT22;4508;48.790;9.028;2023-02-26T05:19:51;-2.60;99.90
8947;DHT22;4508;48.790;9.028;2023-02-26T05:22:18;-2.50;99.90
8947;DHT22;4508;48.790;9.028;2023-02-26T05:24:44;-2.70;99.90
8947;DHT22;4508;48.790;9.028;2023-02-26T05:27:11;-2.80;99.90
8947;DHT22;4508;48.790;9.028;2023-02-26T05:29:40;-2.90;99.90
8947;DHT22;4508;48.790;9.028;2023-02-26T05:32:09;-2.80;99.90
8947;DHT22;4508;48.790;9.028;2023-02-26T05:34:36;-2.80;99.90
8947;DHT22;4508;48.790;9.028;2023-02-26T05:37:02;-2.80;99.90
8947;DHT22;4508;48.790;9.028;2023-02-26T05:39:29;-2.90;99.90
8947;DHT22;4508;48.790;9.028;2023-02-26T05:41:56;-2.80;99.90
8947;DHT22;4508;48.790;9.028;2023-02-26T05:44:23;-2.90;99.90
8947;DHT22;4508;48.790;9.028;2023-02-26T05:46:51;-2.80;99.90
8947;DHT22;4508;48.790;9.028;2023-02-26T05:49:17;-2.80;99.90
8947;DHT22;4508;48.790;9.028;2023-02-26T05:51:44;-2.90;99.90
8947;DHT22;4508;48.790;9.028;2023-02-26T05:54:11;-3.00;99.90
8947;DHT22;4508;48.790;9.028;2023-02-26T05:56:37;-3.10;99.90
8947;DHT22;4508;48.790;9.028;2023-02-26T05:59:04;-3.00;99.90
8947;DHT22;4508;48.790;9.028;2023-02-26T06:01:31;-2.80;99.90
8947;DHT22;4508;48.790;9.028;2023-02-26T06:03:59;-2.90;99.90
8947;DHT22;4508;48.790;9.028;2023-02-26T06:06:25;-3.00;99.90
8947;DHT22;4508;48.790;9.028;2023-02-26T06:08:52;-3.00;99.90
8947;DHT22;4508;48.790;9.028;2023-02-26T06:11:19;-3.00;99.90
8947;DHT22;4508;48.790;9.028;2023-02-26T06:13:45;-3.00;99.90
8947;DHT22;4508;48.790;9.028;2023-02-26T06:16:12;-3.00;99.90
8947;DHT22;4508;48.790;9.028;2023-02-26T06:18:39;-3.00;99.90
8947;DHT22;4508;48.790;9.028;2023-02-26T06:21:07;-3.00;99.90
8947;DHT22;4508;48.790;9.028;2023-02-26T06:23:34;-3.00;99.90
8947;DHT22;4508;48.790;9.028;2023-02-26T06:26:00;-3.00;99.90
8947;DHT22;4508;48.790;9.028;2023-02-26T06:28:27;-2.90;99.90
8947;DHT22;4508;48.790;9.028;2023-02-26T06:30:54;-2.90;99.90
8947;DHT22;4508;48.790;9.028;2023-02-26T06:33:21;-2.90;99.90
8947;DHT22;4508;48.790;9.028;2023-02-26T06:35:48;-2.80;99.90
8947;DHT22;4508;48.790;9.028;2023-02-26T06:38:17;-2.80;99.90
8947;DHT22;4508;48.790;9.028;2023-02-26T06:40:43;-2.80;99.90
8947;DHT22;4508;48.790;9.028;2023-02-26T06:43:11;-2.80;99.90
8947;DHT22;4508;48.790;9.028;2023-02-26T06:45:37;-3.00;99.90
8947;DHT22;4508;48.790;9.028;2023-02-26T06:48:04;-3.00;99.90
8947;DHT22;4508;48.790;9.028;2023-02-26T06:50:31;-2.80;99.90
8947;DHT22;4508;48.790;9.028;2023-02-26T06:52:57;-2.70;99.90
8947;DHT22;4508;48.790;9.028;2023-02-26T06:55:25;-2.70;99.90
8947;DHT22;4508;48.790;9.028;2023-02-26T06:57:52;-2.50;99.90
8947;DHT22;4508;48.790;9.028;2023-02-26T07:00:20;-2.50;99.90
8947;DHT22;4508;48.790;9.028;2023-02-26T07:02:47;-2.30;99.90
8947;DHT22;4508;48.790;9.028;2023-02-26T07:05:14;-2.10;99.90
8947;DHT22;4508;48.790;9.028;2023-02-26T07:07:40;-2.30;99.90
8947;DHT22;4508;48.790;9.028;2023-02-26T07:10:08;-2.10;99.90
8947;DHT22;4508;48.790;9.028;2023-02-26T07:12:37;-2.10;99.90
8947;DHT22;4508;48.790;9.028;2023-02-26T07:15:04;-2.10;99.90
8947;DHT22;4508;48.790;9.028;2023-02-26T07:17:31;-1.90;99.90
8947;DHT22;4508;48.790;9.028;2023-02-26T07:19:58;-1.80;99.90
8947;DHT22;4508;48.790;9.028;2023-02-26T07:22:30;-1.60;99.90
8947;DHT22;4508;48.790;9.028;2023-02-26T07:24:57;-1.40;99.90
8947;DHT22;4508;48.790;9.028;2023-02-26T07:27:24;-1.60;99.90
8947;DHT22;4508;48.790;9.028;2023-02-26T07:29:52;-1.80;99.90
8947;DHT22;4508;48.790;9.028;2023-02-26T07:32:19;-1.90;99.90
8947;DHT22;4508;48.790;9.028;2023-02-26T07:34:46;-1.50;99.90
8947;DHT22;4508;48.790;9.028;2023-02-26T07:37:13;-1.60;99.90
8947;DHT22;4508;48.790;9.028;2023-02-26T07:39:39;-1.70;99.90
8947;DHT22;4508;48.790;9.028;2023-02-26T07:42:06;-1.70;99.90
8947;DHT22;4508;48.790;9.028;2023-02-26T07:44:33;-1.60;99.90
8947;DHT22;4508;48.790;9.028;2023-02-26T07:47:01;-1.10;99.90
8947;DHT22;4508;48.790;9.028;2023-02-26T07:49:28;0.80;99.90
8947;DHT22;4508;48.790;9.028;2023-02-26T07:51:54;1.70;99.90
8947;DHT22;4508;48.790;9.028;2023-02-26T07:54:21;0.80;99.90
8947;DHT22;4508;48.790;9.028;2023-02-26T07:56:48;0.20;99.90
8947;DHT22;4508;48.790;9.028;2023-02-26T07:59:15;-0.70;99.90
8947;DHT22;4508;48.790;9.028;2023-02-26T08:01:41;-1.00;99.90
8947;DHT22;4508;48.790;9.028;2023-02-26T08:04:09;-1.20;99.90
8947;DHT22;4508;48.790;9.028;2023-02-26T08:06:36;-1.20;99.90
8947;DHT22;4508;48.790;9.028;2023-02-26T08:09:03;-1.40;99.90
8947;DHT22;4508;48.790;9.028;2023-02-26T08:11:30;-1.20;99.90
8947;DHT22;4508;48.790;9.028;2023-02-26T08:13:57;-1.30;99.90
8947;DHT22;4508;48.790;9.028;2023-02-26T08:16:24;-1.50;99.90
8947;DHT22;4508;48.790;9.028;2023-02-26T08:18:50;-1.60;99.90
8947;DHT22;4508;48.790;9.028;2023-02-26T08:21:18;-1.20;99.90
8947;DHT22;4508;48.790;9.028;2023-02-26T08:23:46;-0.60;99.90
8947;DHT22;4508;48.790;9.028;2023-02-26T08:26:13;0.40;99.90
8947;DHT22;4508;48.790;9.028;2023-02-26T08:28:40;0.30;99.90
8947;DHT22;4508;48.790;9.028;2023-02-26T08:31:07;0.20;99.90
8947;DHT22;4508;48.790;9.028;2023-02-26T08:33:33;0.30;99.90
8947;DHT22;4508;48.790;9.028;2023-02-26T08:36:00;-0.50;99.90
8947;DHT22;4508;48.790;9.028;2023-02-26T08:38:28;-0.50;99.90
8947;DHT22;4508;48.790;9.028;2023-02-26T08:40:55;-1.00;99.90
8947;DHT22;4508;48.790;9.028;2023-02-26T08:43:22;-1.10;99.90
8947;DHT22;4508;48.790;9.028;2023-02-26T08:45:51;-1.20;99.90
8947;DHT22;4508;48.790;9.028;2023-02-26T08:48:18;-1.20;99.90
8947;DHT22;4508;48.790;9.028;2023-02-26T08:50:45;-1.00;99.90
8947;DHT22;4508;48.790;9.028;2023-02-26T08:53:12;-1.00;99.90
8947;DHT22;4508;48.790;9.028;2023-02-26T08:55:40;-0.80;99.90
8947;DHT22;4508;48.790;9.028;2023-02-26T08:58:09;-0.90;99.90
8947;DHT22;4508;48.790;9.028;2023-02-26T09:00:36;-0.80;99.90
8947;DHT22;4508;48.790;9.028;2023-02-26T09:03:02;-0.80;99.90
8947;DHT22;4508;48.790;9.028;2023-02-26T09:05:29;-1.00;99.90
8947;DHT22;4508;48.790;9.028;2023-02-26T09:07:56;-1.20;99.90
8947;DHT22;4508;48.790;9.028;2023-02-26T09:10:22;-1.10;99.90
8947;DHT22;4508;48.790;9.028;2023-02-26T09:12:50;-1.10;99.90
8947;DHT22;4508;48.790;9.028;2023-02-26T09:15:17;-1.20;99.90
8947;DHT22;4508;48.790;9.028;2023-02-26T09:17:44;-1.40;99.90
8947;DHT22;4508;48.790;9.028;2023-02-26T09:20:13;-1.40;99.90
8947;DHT22;4508;48.790;9.028;2023-02-26T09:22:40;-1.30;99.90
8947;DHT22;4508;48.790;9.028;2023-02-26T09:25:08;-1.40;99.90
8947;DHT22;4508;48.790;9.028;2023-02-26T09:27:35;-1.40;99.90
8947;DHT22;4508;48.790;9.028;2023-02-26T09:30:04;-1.40;99.90
8947;DHT22;4508;48.790;9.028;2023-02-26T09:32:31;-1.30;99.90
8947;DHT22;4508;48.790;9.028;2023-02-26T09:34:57;-1.20;99.90
8947;DHT22;4508;48.790;9.028;2023-02-26T09:37:24;-1.10;99.90
8947;DHT22;4508;48.790;9.028;2023-02-26T09:39:51;-1.20;99.90
8947;DHT22;4508;48.790;9.028;2023-02-26T09:42:27;-1.00;99.90
8947;DHT22;4508;48.790;9.028;2023-02-26T09:44:55;-1.20;99.90
8947;DHT22;4508;48.790;9.028;2023-02-26T09:47:27;-1.40;99.90
8947;DHT22;4508;48.790;9.028;2023-02-26T09:49:58;-1.10;99.90
8947;DHT22;4508;48.790;9.028;2023-02-26T09:52:33;-1.10;99.90
8947;DHT22;4508;48.790;9.028;2023-02-26T09:55:04;-1.30;99.90
8947;DHT22;4508;48.790;9.028;2023-02-26T09:57:36;-1.30;99.90
8947;DHT22;4508;48.790;9.028;2023-02-26T10:00:13;-1.20;99.90
8947;DHT22;4508;48.790;9.028;2023-02-26T10:02:57;-1.30;99.90
8947;DHT22;4508;48.790;9.028;2023-02-26T10:05:31;-1.20;99.90
8947;DHT22;4508;48.790;9.028;2023-02-26T10:08:03;-1.20;99.90
8947;DHT22;4508;48.790;9.028;2023-02-26T10:10:37;-1.20;99.90
8947;DHT22;4508;48.790;9.028;2023-02-26T10:13:18;-1.30;99.90
8947;DHT22;4508;48.790;9.028;2023-02-26T10:15:48;-1.40;99.90
8947;DHT22;4508;48.790;9.028;2023-02-26T10:18:20;-1.30;99.90
8947;DHT22;4508;48.790;9.028;2023-02-26T10:20:53;-1.30;99.90
8947;DHT22;4508;48.790;9.028;2023-02-26T10:23:23;-1.40;99.90
8947;DHT22;4508;48.790;9.028;2023-02-26T10:25:58;-1.30;99.90
8947;DHT22;4508;48.790;9.028;2023-02-26T10:28:42;-1.30;99.90
8947;DHT22;4508;48.790;9.028;2023-02-26T10:31:17;-1.30;99.90
8947;DHT22;4508;48.790;9.028;2023-02-26T10:33:54;-1.40;99.90
8947;DHT22;4508;48.790;9.028;2023-02-26T10:36:25;-1.40;99.90
8947;DHT22;4508;48.790;9.028;2023-02-26T10:39:00;-1.40;99.90
8947;DHT22;4508;48.790;9.028;2023-02-26T10:41:30;-1.30;99.90
8947;DHT22;4508;48.790;9.028;2023-02-26T10:44:02;-1.30;99.90
8947;DHT22;4508;48.790;9.028;2023-02-26T10:46:36;-1.30;99.90
8947;DHT22;4508;48.790;9.028;2023-02-26T10:49:30;-1.10;99.90
8947;DHT22;4508;48.790;9.028;2023-02-26T10:52:08;-0.90;99.90
8947;DHT22;4508;48.790;9.028;2023-02-26T10:54:39;-1.00;99.90
8947;DHT22;4508;48.790;9.028;2023-02-26T10:57:08;-1.00;99.90
8947;DHT22;4508;48.790;9.028;2023-02-26T10:59:40;-0.90;99.90
8947;DHT22;4508;48.790;9.028;2023-02-26T11:02:30;-0.90;99.90
8947;DHT22;4508;48.790;9.028;2023-02-26T11:04:59;-0.90;99.90
8947;DHT22;4508;48.790;9.028;2023-02-26T11:07:28;-0.90;99.90
8947;DHT22;4508;48.790;9.028;2023-02-26T11:09:56;-0.90;99.90
8947;DHT22;4508;48.790;9.028;2023-02-26T11:12:24;-0.80;99.90
8947;DHT22;4508;48.790;9.028;2023-02-26T11:14:52;-0.80;99.90
8947;DHT22;4508;48.790;9.028;2023-02-26T11:17:21;-0.90;99.90
8947;DHT22;4508;48.790;9.028;2023-02-26T11:19:57;-0.80;99.90
8947;DHT22;4508;48.790;9.028;2023-02-26T11:22:28;-0.60;99.90
8947;DHT22;4508;48.790;9.028;2023-02-26T11:24:56;-0.60;99.90
8947;DHT22;4508;48.790;9.028;2023-02-26T11:27:25;-0.60;99.90
8947;DHT22;4508;48.790;9.028;2023-02-26T11:29:55;-0.70;99.90
8947;DHT22;4508;48.790;9.028;2023-02-26T11:32:28;-0.70;99.90
8947;DHT22;4508;48.790;9.028;2023-02-26T11:34:56;-0.40;99.90
8947;DHT22;4508;48.790;9.028;2023-02-26T11:37:26;-0.20;99.90
8947;DHT22;4508;48.790;9.028;2023-02-26T11:39:56;0.20;99.90
8947;DHT22;4508;48.790;9.028;2023-02-26T11:42:24;0.20;99.90
8947;DHT22;4508;48.790;9.028;2023-02-26T11:44:51;0.40;99.90
8947;DHT22;4508;48.790;9.028;2023-02-26T11:47:20;0.50;99.90
8947;DHT22;4508;48.790;9.028;2023-02-26T11:49:50;0.50;99.90
8947;DHT22;4508;48.790;9.028;2023-02-26T11:52:20;0.30;99.90
8947;DHT22;4508;48.790;9.028;2023-02-26T11:54:50;0.20;99.90
8947;DHT22;4508;48.790;9.028;2023-02-26T11:57:23;0.30;99.90
8947;DHT22;4508;48.790;9.028;2023-02-26T11:59:52;0.60;99.90
8947;DHT22;4508;48.790;9.028;2023-02-26T12:02:20;0.70;99.90
8947;DHT22;4508;48.790;9.028;2023-02-26T12:04:50;0.50;99.90
8947;DHT22;4508;48.790;9.028;2023-02-26T12:07:19;0.40;99.90
8947;DHT22;4508;48.790;9.028;2023-02-26T12:09:46;0.50;99.90
8947;DHT22;4508;48.790;9.028;2023-02-26T12:12:23;0.40;99.90
8947;DHT22;4508;48.790;9.028;2023-02-26T12:15:09;0.10;99.90
8947;DHT22;4508;48.790;9.028;2023-02-26T12:18:01;-0.10;99.90
8947;DHT22;4508;48.790;9.028;2023-02-26T12:20:34;-0.10;99.90
8947;DHT22;4508;48.790;9.028;2023-02-26T12:23:16;0.00;99.90
8947;DHT22;4508;48.790;9.028;2023-02-26T12:25:58;0.00;99.90
8947;DHT22;4508;48.790;9.028;2023-02-26T12:28:56;0.00;99.90
8947;DHT22;4508;48.790;9.028;2023-02-26T12:31:41;0.00;99.90
8947;DHT22;4508;48.790;9.028;2023-02-26T12:37:29;-0.10;99.90
8947;DHT22;4508;48.790;9.028;2023-02-26T12:40:07;-0.10;99.90
8947;DHT22;4508;48.790;9.028;2023-02-26T12:42:46;-0.10;99.90
8947;DHT22;4508;48.790;9.028;2023-02-26T12:45:35;-0.20;99.90
8947;DHT22;4508;48.790;9.028;2023-02-26T12:48:29;-0.10;99.90
8947;DHT22;4508;48.790;9.028;2023-02-26T12:51:02;-0.10;99.90
8947;DHT22;4508;48.790;9.028;2023-02-26T12:53:53;-0.10;99.90
8947;DHT22;4508;48.790;9.028;2023-02-26T12:56:38;0.00;99.90
8947;DHT22;4508;48.790;9.028;2023-02-26T12:59:23;0.10;99.90
8947;DHT22;4508;48.790;9.028;2023-02-26T13:02:22;0.00;99.90
8947;DHT22;4508;48.790;9.028;2023-02-26T13:05:06;0.20;99.90
8947;DHT22;4508;48.790;9.028;2023-02-26T13:07:58;0.50;99.90
8947;DHT22;4508;48.790;9.028;2023-02-26T13:10:35;0.40;99.90
8947;DHT22;4508;48.790;9.028;2023-02-26T13:13:34;0.50;99.90
8947;DHT22;4508;48.790;9.028;2023-02-26T13:16:17;0.50;99.90
8947;DHT22;4508;48.790;9.028;2023-02-26T13:18:50;0.40;99.90
8947;DHT22;4508;48.790;9.028;2023-02-26T13:21:21;0.40;99.90
8947;DHT22;4508;48.790;9.028;2023-02-26T13:23:52;0.70;99.90
8947;DHT22;4508;48.790;9.028;2023-02-26T13:26:21;0.90;99.90
8947;DHT22;4508;48.790;9.028;2023-02-26T13:28:53;0.80;99.90
8947;DHT22;4508;48.790;9.028;2023-02-26T13:31:22;0.80;99.90
8947;DHT22;4508;48.790;9.028;2023-02-26T13:33:53;0.80;99.90
8947;DHT22;4508;48.790;9.028;2023-02-26T13:36:23;0.60;99.90
8947;DHT22;4508;48.790;9.028;2023-02-26T13:39:02;0.70;99.90
8947;DHT22;4508;48.790;9.028;2023-02-26T13:41:37;0.70;99.90
8947;DHT22;4508;48.790;9.028;2023-02-26T13:44:16;0.70;99.90
8947;DHT22;4508;48.790;9.028;2023-02-26T13:46:54;0.90;99.90
8947;DHT22;4508;48.790;9.028;2023-02-26T13:49:28;0.90;99.90
8947;DHT22;4508;48.790;9.028;2023-02-26T13:51:56;0.90;99.90
8947;DHT22;4508;48.790;9.028;2023-02-26T13:54:43;1.00;99.90
8947;DHT22;4508;48.790;9.028;2023-02-26T13:57:24;1.10;99.90
8947;DHT22;4508;48.790;9.028;2023-02-26T13:59:57;1.10;99.90
8947;DHT22;4508;48.790;9.028;2023-02-26T14:02:40;1.00;99.90
8947;DHT22;4508;48.790;9.028;2023-02-26T14:05:32;1.30;99.90
8947;DHT22;4508;48.790;9.028;2023-02-26T14:08:23;1.50;99.90
8947;DHT22;4508;48.790;9.028;2023-02-26T14:10:55;1.40;99.90
8947;DHT22;4508;48.790;9.028;2023-02-26T14:13:24;1.60;99.90
8947;DHT22;4508;48.790;9.028;2023-02-26T14:15:59;1.50;99.90
8947;DHT22;4508;48.790;9.028;2023-02-26T14:18:34;1.60;99.90
8947;DHT22;4508;48.790;9.028;2023-02-26T14:21:36;1.40;99.90
8947;DHT22;4508;48.790;9.028;2023-02-26T14:24:10;1.20;99.90
8947;DHT22;4508;48.790;9.028;2023-02-26T14:26:44;1.20;99.90
8947;DHT22;4508;48.790;9.028;2023-02-26T14:29:15;1.20;99.90
8947;DHT22;4508;48.790;9.028;2023-02-26T14:31:52;1.10;99.90
8947;DHT22;4508;48.790;9.028;2023-02-26T14:34:23;1.10;99.90
8947;DHT22;4508;48.790;9.028;2023-02-26T14:36:54;1.30;99.90
8947;DHT22;4508;48.790;9.028;2023-02-26T14:39:28;1.50;99.90
8947;DHT22;4508;48.790;9.028;2023-02-26T14:41:59;1.50;99.90
8947;DHT22;4508;48.790;9.028;2023-02-26T14:44:29;1.20;99.90
8947;DHT22;4508;48.790;9.028;2023-02-26T14:46:57;1.10;99.90
8947;DHT22;4508;48.790;9.028;2023-02-26T14:49:29;1.20;99.90
8947;DHT22;4508;48.790;9.028;2023-02-26T14:52:34;1.00;99.90
8947;DHT22;4508;48.790;9.028;2023-02-26T14:55:26;1.00;99.90
8947;DHT22;4508;48.790;9.028;2023-02-26T14:58:04;1.00;99.90
8947;DHT22;4508;48.790;9.028;2023-02-26T15:00:40;1.00;99.90
8947;DHT22;4508;48.790;9.028;2023-02-26T15:03:25;1.00;99.90
8947;DHT22;4508;48.790;9.028;2023-02-26T15:06:10;1.10;99.90
8947;DHT22;4508;48.790;9.028;2023-02-26T15:08:52;1.10;99.90
8947;DHT22;4508;48.790;9.028;2023-02-26T15:11:40;1.10;99.90
8947;DHT22;4508;48.790;9.028;2023-02-26T15:14:28;1.00;99.90
8947;DHT22;4508;48.790;9.028;2023-02-26T15:17:06;1.00;99.90
8947;DHT22;4508;48.790;9.028;2023-02-26T15:19:49;1.00;99.90
8947;DHT22;4508;48.790;9.028;2023-02-26T15:22:30;0.90;99.90
8947;DHT22;4508;48.790;9.028;2023-02-26T15:25:00;1.00;99.90
8947;DHT22;4508;48.790;9.028;2023-02-26T15:27:29;1.00;99.90
8947;DHT22;4508;48.790;9.028;2023-02-26T15:29:58;0.90;99.90
8947;DHT22;4508;48.790;9.028;2023-02-26T15:32:27;0.90;99.90
8947;DHT22;4508;48.790;9.028;2023-02-26T15:34:57;1.00;99.90
8947;DHT22;4508;48.790;9.028;2023-02-26T15:37:28;1.00;99.90
8947;DHT22;4508;48.790;9.028;2023-02-26T15:39:57;0.90;99.90
8947;DHT22;4508;48.790;9.028;2023-02-26T15:42:30;0.80;99.90
8947;DHT22;4508;48.790;9.028;2023-02-26T15:44:59;0.70;99.90
8947;DHT22;4508;48.790;9.028;2023-02-26T15:47:27;0.50;99.90
8947;DHT22;4508;48.790;9.028;2023-02-26T15:49:55;0.50;99.90
8947;DHT22;4508;48.790;9.028;2023-02-26T15:52:24;0.50;99.90
8947;DHT22;4508;48.790;9.028;2023-02-26T15:54:54;0.60;99.90
8947;DHT22;4508;48.790;9.028;2023-02-26T15:57:22;0.90;99.90
8947;DHT22;4508;48.790;9.028;2023-02-26T15:59:53;1.10;99.90
8947;DHT22;4508;48.790;9.028;2023-02-26T16:02:23;1.30;99.90
8947;DHT22;4508;48.790;9.028;2023-02-26T16:04:51;1.40;99.90
8947;DHT22;4508;48.790;9.028;2023-02-26T16:07:18;1.60;99.90
8947;DHT22;4508;48.790;9.028;2023-02-26T16:09:46;1.40;99.90
8947;DHT22;4508;48.790;9.028;2023-02-26T16:12:17;1.20;99.90
8947;DHT22;4508;48.790;9.028;2023-02-26T16:14:47;0.90;99.90
8947;DHT22;4508;48.790;9.028;2023-02-26T16:17:23;0.80;99.90
8947;DHT22;4508;48.790;9.028;2023-02-26T16:19:50;0.70;99.90
8947;DHT22;4508;48.790;9.028;2023-02-26T16:22:20;0.60;99.90
8947;DHT22;4508;48.790;9.028;2023-02-26T16:24:53;0.40;99.90
8947;DHT22;4508;48.790;9.028;2023-02-26T16:27:24;0.40;99.90
8947;DHT22;4508;48.790;9.028;2023-02-26T16:29:54;0.30;99.90
8947;DHT22;4508;48.790;9.028;2023-02-26T16:32:25;0.20;99.90
8947;DHT22;4508;48.790;9.028;2023-02-26T16:34:53;0.20;99.90
8947;DHT22;4508;48.790;9.028;2023-02-26T16:37:26;0.20;99.90